sensor_id;sensor_type;location;lat;lon;timestamp;P1;durP1;ratioP1;P2;durP2;ratioP2
69172;SDS011;56280;49.662;8.408;2024-02-14T00:01:49;23.50;;;21.80;;
69172;SDS011;56280;49.662;8.408;2024-02-14T00:04:15;24.25;;;22.45;;
69172;SDS011;56280;49.662;8.408;2024-02-14T00:06:40;25.13;;;23.10;;
69172;SDS011;56280;49.662;8.408;2024-02-14T00:09:06;23.43;;;21.53;;
69172;SDS011;56280;49.662;8.408;2024-02-14T00:11:31;24.67;;;22.93;;
69172;SDS011;56280;49.662;8.408;2024-02-14T00:13:57;24.70;;;22.87;;
69172;SDS011;56280;49.662;8.408;2024-02-14T00:16:23;25.20;;;23.27;;
69172;SDS011;56280;49.662;8.408;2024-02-14T00:18:49;26.03;;;24.03;;
69172;SDS011;56280;49.662;8.408;2024-02-14T00:21:14;24.90;;;23.27;;
69172;SDS011;56280;49.662;8.408;2024-02-14T00:23:39;26.00;;;24.00;;
69172;SDS011;56280;49.662;8.408;2024-02-14T00:26:05;25.07;;;23.17;;
69172;SDS011;56280;49.662;8.408;2024-02-14T00:28:30;24.43;;;22.57;;
69172;SDS011;56280;49.662;8.408;2024-02-14T00:30:55;25.93;;;24.07;;
69172;SDS011;56280;49.662;8.408;2024-02-14T00:33:21;26.50;;;24.60;;
69172;SDS011;56280;49.662;8.408;2024-02-14T00:35:47;26.52;;;24.73;;
69172;SDS011;56280;49.662;8.408;2024-02-14T00:38:12;25.17;;;23.40;;
69172;SDS011;56280;49.662;8.408;2024-02-14T00:40:37;26.77;;;24.73;;
69172;SDS011;56280;49.662;8.408;2024-02-14T00:43:03;27.70;;;25.50;;
69172;SDS011;56280;49.662;8.408;2024-02-14T00:45:28;28.13;;;25.80;;
69172;SDS011;56280;49.662;8.408;2024-02-14T00:47:53;27.23;;;24.87;;
69172;SDS011;56280;49.662;8.408;2024-02-14T00:50:19;29.17;;;26.77;;
69172;SDS011;56280;49.662;8.408;2024-02-14T00:52:44;26.63;;;24.47;;
69172;SDS011;56280;49.662;8.408;2024-02-14T00:55:09;27.67;;;25.30;;
69172;SDS011;56280;49.662;8.408;2024-02-14T00:57:34;28.33;;;26.13;;
69172;SDS011;56280;49.662;8.408;2024-02-14T01:00:00;27.10;;;24.98;;
69172;SDS011;56280;49.662;8.408;2024-02-14T01:02:25;28.92;;;26.55;;
69172;SDS011;56280;49.662;8.408;2024-02-14T01:04:51;26.92;;;24.80;;
69172;SDS011;56280;49.662;8.408;2024-02-14T01:07:16;26.67;;;24.30;;
69172;SDS011;56280;49.662;8.408;2024-02-14T01:09:42;25.23;;;23.13;;
69172;SDS011;56280;49.662;8.408;2024-02-14T01:12:07;28.70;;;26.67;;
69172;SDS011;56280;49.662;8.408;2024-02-14T01:14:32;27.93;;;25.90;;
69172;SDS011;56280;49.662;8.408;2024-02-14T01:16:58;27.20;;;25.10;;
69172;SDS011;56280;49.662;8.408;2024-02-14T01:19:23;27.90;;;25.57;;
69172;SDS011;56280;49.662;8.408;2024-02-14T01:21:53;28.98;;;26.65;;
69172;SDS011;56280;49.662;8.408;2024-02-14T01:24:19;24.48;;;22.40;;
69172;SDS011;56280;49.662;8.408;2024-02-14T01:26:45;25.17;;;23.27;;
69172;SDS011;56280;49.662;8.408;2024-02-14T01:29:10;25.77;;;23.67;;
69172;SDS011;56280;49.662;8.408;2024-02-14T01:31:35;26.90;;;24.83;;
69172;SDS011;56280;49.662;8.408;2024-02-14T01:34:00;25.87;;;23.80;;
69172;SDS011;56280;49.662;8.408;2024-02-14T01:36:28;25.30;;;23.30;;
69172;SDS011;56280;49.662;8.408;2024-02-14T01:38:54;27.33;;;25.27;;
69172;SDS011;56280;49.662;8.408;2024-02-14T01:41:19;25.47;;;23.53;;
69172;SDS011;56280;49.662;8.408;2024-02-14T01:43:46;26.33;;;24.23;;
69172;SDS011;56280;49.662;8.408;2024-02-14T01:46:15;28.13;;;26.10;;
69172;SDS011;56280;49.662;8.408;2024-02-14T01:48:41;26.47;;;24.53;;
69172;SDS011;56280;49.662;8.408;2024-02-14T01:51:07;27.23;;;25.15;;
69172;SDS011;56280;49.662;8.408;2024-02-14T01:53:34;27.73;;;25.42;;
69172;SDS011;56280;49.662;8.408;2024-02-14T01:56:01;26.05;;;24.05;;
69172;SDS011;56280;49.662;8.408;2024-02-14T01:58:27;26.93;;;24.83;;
69172;SDS011;56280;49.662;8.408;2024-02-14T02:00:54;27.90;;;25.80;;
69172;SDS011;56280;49.662;8.408;2024-02-14T02:03:25;26.35;;;24.27;;
69172;SDS011;56280;49.662;8.408;2024-02-14T02:05:51;26.17;;;24.20;;
69172;SDS011;56280;49.662;8.408;2024-02-14T02:08:17;27.90;;;25.90;;
69172;SDS011;56280;49.662;8.408;2024-02-14T02:10:42;27.07;;;25.13;;
69172;SDS011;56280;49.662;8.408;2024-02-14T02:13:08;26.53;;;24.63;;
69172;SDS011;56280;49.662;8.408;2024-02-14T02:15:34;24.02;;;22.13;;
69172;SDS011;56280;49.662;8.408;2024-02-14T02:17:59;26.73;;;24.63;;
69172;SDS011;56280;49.662;8.408;2024-02-14T02:20:25;28.08;;;25.90;;
69172;SDS011;56280;49.662;8.408;2024-02-14T02:22:52;25.30;;;23.33;;
69172;SDS011;56280;49.662;8.408;2024-02-14T02:25:18;27.83;;;25.73;;
69172;SDS011;56280;49.662;8.408;2024-02-14T02:27:48;28.15;;;25.95;;
69172;SDS011;56280;49.662;8.408;2024-02-14T02:30:13;24.00;;;22.10;;
69172;SDS011;56280;49.662;8.408;2024-02-14T02:32:38;28.83;;;26.53;;
69172;SDS011;56280;49.662;8.408;2024-02-14T02:35:04;29.47;;;27.23;;
69172;SDS011;56280;49.662;8.408;2024-02-14T02:37:29;26.70;;;24.70;;
69172;SDS011;56280;49.662;8.408;2024-02-14T02:39:56;24.73;;;22.73;;
69172;SDS011;56280;49.662;8.408;2024-02-14T02:42:22;26.98;;;24.85;;
69172;SDS011;56280;49.662;8.408;2024-02-14T02:44:48;25.57;;;23.67;;
69172;SDS011;56280;49.662;8.408;2024-02-14T02:47:14;26.17;;;24.38;;
69172;SDS011;56280;49.662;8.408;2024-02-14T02:49:41;26.42;;;24.50;;
69172;SDS011;56280;49.662;8.408;2024-02-14T02:52:09;24.33;;;22.60;;
69172;SDS011;56280;49.662;8.408;2024-02-14T02:54:34;25.55;;;23.70;;
69172;SDS011;56280;49.662;8.408;2024-02-14T02:57:00;25.90;;;24.00;;
69172;SDS011;56280;49.662;8.408;2024-02-14T02:59:28;25.35;;;23.27;;
69172;SDS011;56280;49.662;8.408;2024-02-14T03:01:54;27.05;;;24.70;;
69172;SDS011;56280;49.662;8.408;2024-02-14T03:04:20;28.00;;;25.83;;
69172;SDS011;56280;49.662;8.408;2024-02-14T03:06:45;25.67;;;23.73;;
69172;SDS011;56280;49.662;8.408;2024-02-14T03:09:11;26.50;;;24.60;;
69172;SDS011;56280;49.662;8.408;2024-02-14T03:11:37;24.67;;;22.77;;
69172;SDS011;56280;49.662;8.408;2024-02-14T03:14:04;26.90;;;24.92;;
69172;SDS011;56280;49.662;8.408;2024-02-14T03:16:30;24.60;;;22.83;;
69172;SDS011;56280;49.662;8.408;2024-02-14T03:18:56;27.65;;;25.77;;
69172;SDS011;56280;49.662;8.408;2024-02-14T03:21:21;25.80;;;23.70;;
69172;SDS011;56280;49.662;8.408;2024-02-14T03:23:47;26.40;;;24.50;;
69172;SDS011;56280;49.662;8.408;2024-02-14T03:26:12;28.07;;;25.80;;
69172;SDS011;56280;49.662;8.408;2024-02-14T03:28:38;26.95;;;24.85;;
69172;SDS011;56280;49.662;8.408;2024-02-14T03:31:04;26.58;;;24.55;;
69172;SDS011;56280;49.662;8.408;2024-02-14T03:33:29;27.50;;;25.37;;
69172;SDS011;56280;49.662;8.408;2024-02-14T03:35:54;27.03;;;25.03;;
69172;SDS011;56280;49.662;8.408;2024-02-14T03:38:26;25.07;;;22.97;;
69172;SDS011;56280;49.662;8.408;2024-02-14T03:40:56;25.67;;;23.77;;
69172;SDS011;56280;49.662;8.408;2024-02-14T03:43:21;26.33;;;24.17;;
69172;SDS011;56280;49.662;8.408;2024-02-14T03:45:48;27.23;;;25.13;;
69172;SDS011;56280;49.662;8.408;2024-02-14T03:48:14;26.90;;;24.90;;
69172;SDS011;56280;49.662;8.408;2024-02-14T03:50:39;27.00;;;24.90;;
69172;SDS011;56280;49.662;8.408;2024-02-14T03:53:04;26.20;;;24.23;;
69172;SDS011;56280;49.662;8.408;2024-02-14T03:55:30;29.48;;;27.38;;
69172;SDS011;56280;49.662;8.408;2024-02-14T03:57:56;28.20;;;26.17;;
69172;SDS011;56280;49.662;8.408;2024-02-14T04:00:21;27.00;;;24.73;;
69172;SDS011;56280;49.662;8.408;2024-02-14T04:02:47;26.47;;;24.67;;
69172;SDS011;56280;49.662;8.408;2024-02-14T04:05:13;28.25;;;26.10;;
69172;SDS011;56280;49.662;8.408;2024-02-14T04:07:39;24.75;;;22.92;;
69172;SDS011;56280;49.662;8.408;2024-02-14T04:10:05;26.90;;;24.77;;
69172;SDS011;56280;49.662;8.408;2024-02-14T04:12:31;25.63;;;23.83;;
69172;SDS011;56280;49.662;8.408;2024-02-14T04:14:56;24.37;;;22.40;;
69172;SDS011;56280;49.662;8.408;2024-02-14T04:17:22;24.73;;;22.87;;
69172;SDS011;56280;49.662;8.408;2024-02-14T04:19:47;26.63;;;24.33;;
69172;SDS011;56280;49.662;8.408;2024-02-14T04:22:13;25.83;;;23.93;;
69172;SDS011;56280;49.662;8.408;2024-02-14T04:24:38;26.03;;;24.07;;
69172;SDS011;56280;49.662;8.408;2024-02-14T04:27:04;24.02;;;22.17;;
69172;SDS011;56280;49.662;8.408;2024-02-14T04:29:29;23.55;;;21.80;;
69172;SDS011;56280;49.662;8.408;2024-02-14T04:31:57;26.27;;;24.38;;
69172;SDS011;56280;49.662;8.408;2024-02-14T04:34:23;26.73;;;24.75;;
69172;SDS011;56280;49.662;8.408;2024-02-14T04:36:48;24.73;;;22.80;;
69172;SDS011;56280;49.662;8.408;2024-02-14T04:39:13;26.20;;;24.10;;
69172;SDS011;56280;49.662;8.408;2024-02-14T04:41:39;26.23;;;24.20;;
69172;SDS011;56280;49.662;8.408;2024-02-14T04:44:04;25.30;;;23.53;;
69172;SDS011;56280;49.662;8.408;2024-02-14T04:46:33;24.73;;;22.67;;
69172;SDS011;56280;49.662;8.408;2024-02-14T04:49:00;25.95;;;23.88;;
69172;SDS011;56280;49.662;8.408;2024-02-14T04:51:27;26.23;;;24.23;;
69172;SDS011;56280;49.662;8.408;2024-02-14T04:53:53;23.20;;;21.40;;
69172;SDS011;56280;49.662;8.408;2024-02-14T04:56:19;26.63;;;24.83;;
69172;SDS011;56280;49.662;8.408;2024-02-14T04:58:44;26.50;;;24.60;;
69172;SDS011;56280;49.662;8.408;2024-02-14T05:01:09;23.10;;;21.30;;
69172;SDS011;56280;49.662;8.408;2024-02-14T05:03:35;23.50;;;21.80;;
69172;SDS011;56280;49.662;8.408;2024-02-14T05:06:01;24.23;;;22.33;;
69172;SDS011;56280;49.662;8.408;2024-02-14T05:08:27;26.73;;;24.73;;
69172;SDS011;56280;49.662;8.408;2024-02-14T05:10:53;26.93;;;24.63;;
69172;SDS011;56280;49.662;8.408;2024-02-14T05:13:18;25.20;;;23.30;;
69172;SDS011;56280;49.662;8.408;2024-02-14T05:15:43;24.50;;;22.70;;
69172;SDS011;56280;49.662;8.408;2024-02-14T05:18:09;26.43;;;24.47;;
69172;SDS011;56280;49.662;8.408;2024-02-14T05:20:34;25.67;;;23.67;;
69172;SDS011;56280;49.662;8.408;2024-02-14T05:23:00;27.33;;;25.23;;
69172;SDS011;56280;49.662;8.408;2024-02-14T05:25:25;27.10;;;25.07;;
69172;SDS011;56280;49.662;8.408;2024-02-14T05:27:54;25.42;;;23.52;;
69172;SDS011;56280;49.662;8.408;2024-02-14T05:30:20;26.30;;;24.23;;
69172;SDS011;56280;49.662;8.408;2024-02-14T05:32:45;24.83;;;22.80;;
69172;SDS011;56280;49.662;8.408;2024-02-14T05:35:10;26.03;;;24.07;;
69172;SDS011;56280;49.662;8.408;2024-02-14T05:37:36;26.77;;;24.70;;
69172;SDS011;56280;49.662;8.408;2024-02-14T05:40:02;28.38;;;26.17;;
69172;SDS011;56280;49.662;8.408;2024-02-14T05:42:28;25.63;;;23.63;;
69172;SDS011;56280;49.662;8.408;2024-02-14T05:44:53;26.70;;;24.60;;
69172;SDS011;56280;49.662;8.408;2024-02-14T05:47:18;29.77;;;27.50;;
69172;SDS011;56280;49.662;8.408;2024-02-14T05:49:44;33.50;;;30.77;;
69172;SDS011;56280;49.662;8.408;2024-02-14T05:52:09;113.55;;;87.30;;
69172;SDS011;56280;49.662;8.408;2024-02-14T05:54:35;56.47;;;50.63;;
69172;SDS011;56280;49.662;8.408;2024-02-14T05:57:00;30.60;;;28.23;;
69172;SDS011;56280;49.662;8.408;2024-02-14T05:59:29;26.03;;;24.03;;
69172;SDS011;56280;49.662;8.408;2024-02-14T06:01:55;24.58;;;22.75;;
69172;SDS011;56280;49.662;8.408;2024-02-14T06:04:20;26.40;;;24.37;;
69172;SDS011;56280;49.662;8.408;2024-02-14T06:06:46;22.93;;;21.23;;
69172;SDS011;56280;49.662;8.408;2024-02-14T06:09:11;24.57;;;22.87;;
69172;SDS011;56280;49.662;8.408;2024-02-14T06:11:36;24.83;;;22.73;;
69172;SDS011;56280;49.662;8.408;2024-02-14T06:14:04;24.88;;;22.98;;
69172;SDS011;56280;49.662;8.408;2024-02-14T06:16:30;22.88;;;21.13;;
69172;SDS011;56280;49.662;8.408;2024-02-14T06:18:55;32.77;;;30.23;;
69172;SDS011;56280;49.662;8.408;2024-02-14T06:21:21;24.90;;;23.20;;
69172;SDS011;56280;49.662;8.408;2024-02-14T06:23:46;26.33;;;24.43;;
69172;SDS011;56280;49.662;8.408;2024-02-14T06:26:12;24.97;;;23.03;;
69172;SDS011;56280;49.662;8.408;2024-02-14T06:28:37;24.37;;;22.53;;
69172;SDS011;56280;49.662;8.408;2024-02-14T06:31:02;25.50;;;23.77;;
69172;SDS011;56280;49.662;8.408;2024-02-14T06:33:28;22.07;;;20.23;;
69172;SDS011;56280;49.662;8.408;2024-02-14T06:35:53;23.73;;;21.97;;
69172;SDS011;56280;49.662;8.408;2024-02-14T06:38:18;24.00;;;22.20;;
69172;SDS011;56280;49.662;8.408;2024-02-14T06:40:43;25.80;;;23.90;;
69172;SDS011;56280;49.662;8.408;2024-02-14T06:43:09;24.67;;;22.87;;
69172;SDS011;56280;49.662;8.408;2024-02-14T06:45:34;45.90;;;42.87;;
69172;SDS011;56280;49.662;8.408;2024-02-14T06:47:59;67.87;;;63.40;;
69172;SDS011;56280;49.662;8.408;2024-02-14T06:50:25;20.70;;;19.07;;
69172;SDS011;56280;49.662;8.408;2024-02-14T06:52:50;22.87;;;21.23;;
69172;SDS011;56280;49.662;8.408;2024-02-14T06:55:16;21.47;;;19.90;;
69172;SDS011;56280;49.662;8.408;2024-02-14T06:57:41;21.77;;;20.27;;
69172;SDS011;56280;49.662;8.408;2024-02-14T07:00:07;22.17;;;20.57;;
69172;SDS011;56280;49.662;8.408;2024-02-14T07:02:36;21.58;;;19.88;;
69172;SDS011;56280;49.662;8.408;2024-02-14T07:05:19;18.08;;;16.55;;
69172;SDS011;56280;49.662;8.408;2024-02-14T07:07:58;18.38;;;17.05;;
69172;SDS011;56280;49.662;8.408;2024-02-14T07:10:30;16.83;;;15.45;;
69172;SDS011;56280;49.662;8.408;2024-02-14T07:13:04;14.85;;;13.35;;
69172;SDS011;56280;49.662;8.408;2024-02-14T07:15:36;19.33;;;17.60;;
69172;SDS011;56280;49.662;8.408;2024-02-14T07:18:10;23.90;;;21.83;;
69172;SDS011;56280;49.662;8.408;2024-02-14T07:20:35;16.20;;;14.80;;
69172;SDS011;56280;49.662;8.408;2024-02-14T07:23:01;14.00;;;12.73;;
69172;SDS011;56280;49.662;8.408;2024-02-14T07:25:26;16.47;;;15.27;;
69172;SDS011;56280;49.662;8.408;2024-02-14T07:27:52;13.43;;;12.33;;
69172;SDS011;56280;49.662;8.408;2024-02-14T07:30:17;15.47;;;14.17;;
69172;SDS011;56280;49.662;8.408;2024-02-14T07:32:43;19.77;;;18.17;;
69172;SDS011;56280;49.662;8.408;2024-02-14T07:35:09;12.63;;;11.43;;
69172;SDS011;56280;49.662;8.408;2024-02-14T07:37:34;17.03;;;15.53;;
69172;SDS011;56280;49.662;8.408;2024-02-14T07:40:00;13.13;;;11.93;;
69172;SDS011;56280;49.662;8.408;2024-02-14T07:42:25;15.97;;;14.47;;
69172;SDS011;56280;49.662;8.408;2024-02-14T07:44:50;13.93;;;12.63;;
69172;SDS011;56280;49.662;8.408;2024-02-14T07:47:15;11.97;;;10.33;;
69172;SDS011;56280;49.662;8.408;2024-02-14T07:49:41;10.53;;;9.50;;
69172;SDS011;56280;49.662;8.408;2024-02-14T07:52:06;16.40;;;15.10;;
69172;SDS011;56280;49.662;8.408;2024-02-14T07:54:31;16.63;;;15.10;;
69172;SDS011;56280;49.662;8.408;2024-02-14T07:56:57;9.50;;;8.13;;
69172;SDS011;56280;49.662;8.408;2024-02-14T07:59:22;11.10;;;9.93;;
69172;SDS011;56280;49.662;8.408;2024-02-14T08:01:47;10.70;;;9.60;;
69172;SDS011;56280;49.662;8.408;2024-02-14T08:04:13;10.30;;;7.70;;
69172;SDS011;56280;49.662;8.408;2024-02-14T08:06:38;10.27;;;7.93;;
69172;SDS011;56280;49.662;8.408;2024-02-14T08:09:03;8.03;;;6.53;;
69172;SDS011;56280;49.662;8.408;2024-02-14T08:11:31;8.32;;;5.30;;
69172;SDS011;56280;49.662;8.408;2024-02-14T08:13:57;7.15;;;4.38;;
69172;SDS011;56280;49.662;8.408;2024-02-14T08:16:22;8.13;;;4.80;;
69172;SDS011;56280;49.662;8.408;2024-02-14T08:18:48;6.93;;;4.27;;
69172;SDS011;56280;49.662;8.408;2024-02-14T08:21:15;8.07;;;4.93;;
69172;SDS011;56280;49.662;8.408;2024-02-14T08:23:41;7.20;;;4.30;;
69172;SDS011;56280;49.662;8.408;2024-02-14T08:26:06;7.63;;;4.07;;
69172;SDS011;56280;49.662;8.408;2024-02-14T08:28:35;8.90;;;4.55;;
69172;SDS011;56280;49.662;8.408;2024-02-14T08:31:01;6.53;;;3.60;;
69172;SDS011;56280;49.662;8.408;2024-02-14T08:33:26;8.80;;;4.40;;
69172;SDS011;56280;49.662;8.408;2024-02-14T08:35:52;8.40;;;3.83;;
69172;SDS011;56280;49.662;8.408;2024-02-14T08:38:18;6.93;;;3.70;;
69172;SDS011;56280;49.662;8.408;2024-02-14T08:40:45;6.60;;;3.63;;
69172;SDS011;56280;49.662;8.408;2024-02-14T08:43:10;6.30;;;3.03;;
69172;SDS011;56280;49.662;8.408;2024-02-14T08:45:36;6.68;;;3.30;;
69172;SDS011;56280;49.662;8.408;2024-02-14T08:48:02;10.25;;;3.70;;
69172;SDS011;56280;49.662;8.408;2024-02-14T08:50:28;6.47;;;3.50;;
69172;SDS011;56280;49.662;8.408;2024-02-14T08:52:55;6.72;;;3.25;;
69172;SDS011;56280;49.662;8.408;2024-02-14T08:55:20;6.83;;;3.50;;
69172;SDS011;56280;49.662;8.408;2024-02-14T08:57:45;6.23;;;3.37;;
69172;SDS011;56280;49.662;8.408;2024-02-14T09:00:12;5.70;;;3.28;;
69172;SDS011;56280;49.662;8.408;2024-02-14T09:02:40;6.82;;;3.53;;
69172;SDS011;56280;49.662;8.408;2024-02-14T09:05:06;9.88;;;4.00;;
69172;SDS011;56280;49.662;8.408;2024-02-14T09:07:31;6.47;;;3.33;;
69172;SDS011;56280;49.662;8.408;2024-02-14T09:09:58;7.10;;;3.60;;
69172;SDS011;56280;49.662;8.408;2024-02-14T09:12:24;6.77;;;3.50;;
69172;SDS011;56280;49.662;8.408;2024-02-14T09:14:49;7.90;;;3.63;;
69172;SDS011;56280;49.662;8.408;2024-02-14T09:17:15;8.00;;;3.87;;
69172;SDS011;56280;49.662;8.408;2024-02-14T09:19:40;5.67;;;3.50;;
69172;SDS011;56280;49.662;8.408;2024-02-14T09:22:06;7.30;;;3.43;;
69172;SDS011;56280;49.662;8.408;2024-02-14T09:24:31;8.30;;;3.57;;
69172;SDS011;56280;49.662;8.408;2024-02-14T09:26:57;7.13;;;3.35;;
69172;SDS011;56280;49.662;8.408;2024-02-14T09:29:22;7.85;;;3.83;;
69172;SDS011;56280;49.662;8.408;2024-02-14T09:31:48;6.67;;;3.70;;
69172;SDS011;56280;49.662;8.408;2024-02-14T09:34:16;6.18;;;3.30;;
69172;SDS011;56280;49.662;8.408;2024-02-14T09:36:43;6.87;;;3.53;;
69172;SDS011;56280;49.662;8.408;2024-02-14T09:39:08;5.95;;;3.42;;
69172;SDS011;56280;49.662;8.408;2024-02-14T09:41:37;7.50;;;3.40;;
69172;SDS011;56280;49.662;8.408;2024-02-14T09:44:05;5.95;;;3.13;;
69172;SDS011;56280;49.662;8.408;2024-02-14T09:46:30;6.83;;;2.97;;
69172;SDS011;56280;49.662;8.408;2024-02-14T09:48:57;6.50;;;3.08;;
69172;SDS011;56280;49.662;8.408;2024-02-14T09:51:24;6.60;;;3.50;;
69172;SDS011;56280;49.662;8.408;2024-02-14T09:53:50;7.30;;;3.00;;
69172;SDS011;56280;49.662;8.408;2024-02-14T09:56:18;5.00;;;2.90;;
69172;SDS011;56280;49.662;8.408;2024-02-14T09:58:47;7.15;;;3.25;;
69172;SDS011;56280;49.662;8.408;2024-02-14T10:01:20;6.57;;;3.42;;
69172;SDS011;56280;49.662;8.408;2024-02-14T10:03:48;5.78;;;2.80;;
69172;SDS011;56280;49.662;8.408;2024-02-14T10:06:14;7.25;;;3.22;;
69172;SDS011;56280;49.662;8.408;2024-02-14T10:08:40;6.70;;;3.23;;
69172;SDS011;56280;49.662;8.408;2024-02-14T10:11:05;5.93;;;3.07;;
69172;SDS011;56280;49.662;8.408;2024-02-14T10:13:31;7.85;;;3.60;;
69172;SDS011;56280;49.662;8.408;2024-02-14T10:15:56;5.47;;;3.10;;
69172;SDS011;56280;49.662;8.408;2024-02-14T10:18:22;5.93;;;2.93;;
69172;SDS011;56280;49.662;8.408;2024-02-14T10:20:56;6.03;;;2.97;;
69172;SDS011;56280;49.662;8.408;2024-02-14T10:23:22;7.40;;;3.13;;
69172;SDS011;56280;49.662;8.408;2024-02-14T10:25:52;8.07;;;3.40;;
69172;SDS011;56280;49.662;8.408;2024-02-14T10:28:18;5.43;;;3.27;;
69172;SDS011;56280;49.662;8.408;2024-02-14T10:30:47;5.88;;;3.22;;
69172;SDS011;56280;49.662;8.408;2024-02-14T10:33:14;4.78;;;2.90;;
69172;SDS011;56280;49.662;8.408;2024-02-14T10:35:40;6.35;;;3.00;;
69172;SDS011;56280;49.662;8.408;2024-02-14T10:38:07;5.05;;;2.72;;
69172;SDS011;56280;49.662;8.408;2024-02-14T10:40:34;5.93;;;3.22;;
69172;SDS011;56280;49.662;8.408;2024-02-14T10:43:15;6.47;;;3.03;;
69172;SDS011;56280;49.662;8.408;2024-02-14T10:45:40;6.43;;;2.60;;
69172;SDS011;56280;49.662;8.408;2024-02-14T10:48:19;7.23;;;2.87;;
69172;SDS011;56280;49.662;8.408;2024-02-14T10:50:57;7.60;;;3.10;;
69172;SDS011;56280;49.662;8.408;2024-02-14T10:53:27;4.27;;;2.53;;
69172;SDS011;56280;49.662;8.408;2024-02-14T10:55:59;6.25;;;2.88;;
69172;SDS011;56280;49.662;8.408;2024-02-14T10:58:27;4.80;;;2.65;;
69172;SDS011;56280;49.662;8.408;2024-02-14T11:01:00;4.78;;;2.50;;
69172;SDS011;56280;49.662;8.408;2024-02-14T11:03:29;6.75;;;3.30;;
69172;SDS011;56280;49.662;8.408;2024-02-14T11:05:55;5.60;;;2.70;;
69172;SDS011;56280;49.662;8.408;2024-02-14T11:08:28;5.40;;;2.90;;
69172;SDS011;56280;49.662;8.408;2024-02-14T11:10:54;4.77;;;2.60;;
69172;SDS011;56280;49.662;8.408;2024-02-14T11:13:21;5.50;;;2.58;;
69172;SDS011;56280;49.662;8.408;2024-02-14T11:15:51;4.17;;;2.37;;
69172;SDS011;56280;49.662;8.408;2024-02-14T11:18:24;4.13;;;2.78;;
69172;SDS011;56280;49.662;8.408;2024-02-14T11:20:51;5.10;;;2.45;;
69172;SDS011;56280;49.662;8.408;2024-02-14T11:23:20;5.53;;;2.93;;
69172;SDS011;56280;49.662;8.408;2024-02-14T11:25:46;5.13;;;2.38;;
69172;SDS011;56280;49.662;8.408;2024-02-14T11:28:19;5.82;;;2.78;;
69172;SDS011;56280;49.662;8.408;2024-02-14T11:30:49;5.83;;;2.70;;
69172;SDS011;56280;49.662;8.408;2024-02-14T11:33:21;6.03;;;2.92;;
69172;SDS011;56280;49.662;8.408;2024-02-14T11:35:49;6.20;;;2.60;;
69172;SDS011;56280;49.662;8.408;2024-02-14T11:38:16;4.82;;;2.33;;
69172;SDS011;56280;49.662;8.408;2024-02-14T11:40:44;4.18;;;2.55;;
69172;SDS011;56280;49.662;8.408;2024-02-14T11:43:11;5.32;;;2.20;;
69172;SDS011;56280;49.662;8.408;2024-02-14T11:45:38;4.10;;;1.90;;
69172;SDS011;56280;49.662;8.408;2024-02-14T11:48:06;4.40;;;1.90;;
69172;SDS011;56280;49.662;8.408;2024-02-14T11:50:36;4.82;;;2.28;;
69172;SDS011;56280;49.662;8.408;2024-02-14T11:53:04;4.80;;;2.08;;
69172;SDS011;56280;49.662;8.408;2024-02-14T11:55:33;5.03;;;2.53;;
69172;SDS011;56280;49.662;8.408;2024-02-14T11:58:01;4.50;;;2.50;;
69172;SDS011;56280;49.662;8.408;2024-02-14T12:00:27;6.00;;;3.10;;
69172;SDS011;56280;49.662;8.408;2024-02-14T12:02:52;5.67;;;2.73;;
69172;SDS011;56280;49.662;8.408;2024-02-14T12:05:19;4.73;;;2.57;;
69172;SDS011;56280;49.662;8.408;2024-02-14T12:07:45;4.75;;;2.58;;
69172;SDS011;56280;49.662;8.408;2024-02-14T12:10:11;3.83;;;2.13;;
69172;SDS011;56280;49.662;8.408;2024-02-14T12:12:37;4.60;;;2.47;;
69172;SDS011;56280;49.662;8.408;2024-02-14T12:15:03;4.63;;;2.77;;
69172;SDS011;56280;49.662;8.408;2024-02-14T12:17:28;4.63;;;2.27;;
69172;SDS011;56280;49.662;8.408;2024-02-14T12:20:04;4.93;;;2.10;;
69172;SDS011;56280;49.662;8.408;2024-02-14T12:22:31;5.22;;;2.40;;
69172;SDS011;56280;49.662;8.408;2024-02-14T12:24:56;4.97;;;2.20;;
69172;SDS011;56280;49.662;8.408;2024-02-14T12:27:22;4.50;;;2.10;;
69172;SDS011;56280;49.662;8.408;2024-02-14T12:29:48;4.05;;;2.38;;
69172;SDS011;56280;49.662;8.408;2024-02-14T12:32:15;3.53;;;1.90;;
69172;SDS011;56280;49.662;8.408;2024-02-14T12:34:41;3.97;;;2.25;;
69172;SDS011;56280;49.662;8.408;2024-02-14T12:37:09;4.53;;;2.33;;
69172;SDS011;56280;49.662;8.408;2024-02-14T12:39:34;3.30;;;2.07;;
69172;SDS011;56280;49.662;8.408;2024-02-14T12:42:00;3.88;;;2.28;;
69172;SDS011;56280;49.662;8.408;2024-02-14T12:44:27;4.28;;;2.22;;
69172;SDS011;56280;49.662;8.408;2024-02-14T12:46:53;4.47;;;2.03;;
69172;SDS011;56280;49.662;8.408;2024-02-14T12:49:20;4.50;;;2.20;;
69172;SDS011;56280;49.662;8.408;2024-02-14T12:51:47;3.80;;;2.00;;
69172;SDS011;56280;49.662;8.408;2024-02-14T12:54:12;3.83;;;2.27;;
69172;SDS011;56280;49.662;8.408;2024-02-14T12:56:39;3.55;;;1.73;;
69172;SDS011;56280;49.662;8.408;2024-02-14T12:59:05;3.30;;;2.20;;
69172;SDS011;56280;49.662;8.408;2024-02-14T13:01:31;3.88;;;1.95;;
69172;SDS011;56280;49.662;8.408;2024-02-14T13:03:56;5.00;;;2.30;;
69172;SDS011;56280;49.662;8.408;2024-02-14T13:06:21;3.70;;;2.00;;
69172;SDS011;56280;49.662;8.408;2024-02-14T13:08:47;4.50;;;2.23;;
69172;SDS011;56280;49.662;8.408;2024-02-14T13:11:12;4.00;;;2.10;;
69172;SDS011;56280;49.662;8.408;2024-02-14T13:13:39;4.03;;;2.30;;
69172;SDS011;56280;49.662;8.408;2024-02-14T13:16:06;3.78;;;2.05;;
69172;SDS011;56280;49.662;8.408;2024-02-14T13:18:32;3.83;;;1.80;;
69172;SDS011;56280;49.662;8.408;2024-02-14T13:20:57;4.67;;;2.00;;
69172;SDS011;56280;49.662;8.408;2024-02-14T13:23:25;3.97;;;2.10;;
69172;SDS011;56280;49.662;8.408;2024-02-14T13:25:50;3.50;;;1.80;;
69172;SDS011;56280;49.662;8.408;2024-02-14T13:28:16;4.73;;;1.87;;
69172;SDS011;56280;49.662;8.408;2024-02-14T13:30:41;3.87;;;2.00;;
69172;SDS011;56280;49.662;8.408;2024-02-14T13:33:06;3.50;;;2.17;;
69172;SDS011;56280;49.662;8.408;2024-02-14T13:35:32;3.60;;;2.40;;
69172;SDS011;56280;49.662;8.408;2024-02-14T13:38:02;4.70;;;2.30;;
69172;SDS011;56280;49.662;8.408;2024-02-14T13:40:28;6.10;;;2.25;;
69172;SDS011;56280;49.662;8.408;2024-02-14T13:42:53;5.63;;;2.80;;
69172;SDS011;56280;49.662;8.408;2024-02-14T13:45:18;4.65;;;2.55;;
69172;SDS011;56280;49.662;8.408;2024-02-14T13:47:44;5.28;;;2.20;;
69172;SDS011;56280;49.662;8.408;2024-02-14T13:50:10;5.07;;;2.60;;
69172;SDS011;56280;49.662;8.408;2024-02-14T13:52:35;8.23;;;3.03;;
69172;SDS011;56280;49.662;8.408;2024-02-14T13:55:01;5.10;;;2.70;;
69172;SDS011;56280;49.662;8.408;2024-02-14T13:57:28;4.15;;;2.55;;
69172;SDS011;56280;49.662;8.408;2024-02-14T13:59:54;4.28;;;2.30;;
69172;SDS011;56280;49.662;8.408;2024-02-14T14:02:19;6.20;;;2.70;;
69172;SDS011;56280;49.662;8.408;2024-02-14T14:04:45;4.80;;;2.80;;
69172;SDS011;56280;49.662;8.408;2024-02-14T14:07:10;5.20;;;2.20;;
69172;SDS011;56280;49.662;8.408;2024-02-14T14:09:36;5.00;;;2.43;;
69172;SDS011;56280;49.662;8.408;2024-02-14T14:12:02;5.93;;;2.80;;
69172;SDS011;56280;49.662;8.408;2024-02-14T14:14:27;5.90;;;2.67;;
69172;SDS011;56280;49.662;8.408;2024-02-14T14:16:54;5.30;;;2.42;;
69172;SDS011;56280;49.662;8.408;2024-02-14T14:19:19;5.30;;;2.67;;
69172;SDS011;56280;49.662;8.408;2024-02-14T14:21:44;6.20;;;2.60;;
69172;SDS011;56280;49.662;8.408;2024-02-14T14:24:09;4.53;;;2.60;;
69172;SDS011;56280;49.662;8.408;2024-02-14T14:26:35;5.20;;;2.73;;
69172;SDS011;56280;49.662;8.408;2024-02-14T14:29:00;6.00;;;2.70;;